Main page
METAR-TAF:

METAR-TAF

Airports :

Bad Vöslau Airport

Bad Vöslau, Austria

latitude: 47-57-52N, longitude: 016-15-34E, elevation: 233 m

Current weather observation

The report was made 24 minutes ago, at 17:00 UTC
Wind 15 kt from the East
Temperature 17°C
Humidity 36%
Pressure

METAR: LOAV 221700Z 10015KT 35KM BKN060CU 17/02

Time: 19:24 (17:24 UTC)

Forecast

The report was made 2 hours and 12 minutes ago, at 15:12 UTC
Forecast valid from 22 at 15 UTC to 22 at 21 UTC
Wind 8 kt from the East
Visibility 10 km or more
Scattered clouds at a height of 4000 ft
Broken clouds at a height of 8000 ft
Temporary
from 22 at 15 UTC to 22 at 21 UTC
Broken clouds at a height of 4000 ft
Temporary
from 22 at 15 UTC to 22 at 21 UTC
Wind 20 kt from the East/Southeast with gusts up to 30 kt

TAF: LOAV 221512Z 2215/2221 08008KT 9999 SCT040 BKN080 TEMPO 2215/2221 BKN040 TEMPO 2215/2221 12020G30KT

Weather observations and forecasts of more than 4000 airports (METAR and TAF reports).

The available stations are represented by yellow and red dots on the map.

Hover mouse over dot to see the name of the station.

Then click to see weather observations and forecasts.

To change the map : click on the green buttons with a black cross to zoom in, on the green button with a dash to zoom out, or on the green arrows for adjacent maps.


METAR-TAF: